Time;durP1;ratioP1;P1;durP2;ratioP2;P2;SDS_P1;SDS_P2;PMS_P1;PMS_P2;Temp;Humidity;BMP_temperature;BMP_pressure;BME280_temperature;BME280_humidity;BME280_pressure;Samples;Min_cycle;Max_cycle;Signal;HPM_P1;HPM_P2
2021/09/18 00:59:02;;;;;;;52.00;39.20;;;14.70;99.90;;;;;;6044884;22;21345;31
2021/09/18 03:35:14;;;;;;;56.45;39.05;;;14.40;99.90;;;;;;5775024;23;21209;31
2021/09/18 04:56:04;;;;;;;56.73;42.07;;;14.70;99.90;;;;;;6103507;23;21554;31
2021/09/18 04:58:36;;;;;;;64.37;45.00;;;14.40;99.90;;;;;;5294764;23;20480;-92
2021/09/18 05:11:40;;;;;;;64.53;44.23;;;14.40;99.90;;;;;;5542645;23;20466;-94
2021/09/18 05:20:00;;;;;;;67.10;43.40;;;14.20;99.90;;;;;;5347125;23;20468;-94
2021/09/18 05:34:21;;;;;;;59.73;44.13;;;14.10;99.90;;;;;;5538742;23;20885;31
2021/09/18 05:36:51;;;;;;;64.70;46.17;;;14.70;99.90;;;;;;5031138;22;20455;-92
2021/09/18 05:42:15;;;;;;;61.83;43.60;;;14.30;99.90;;;;;;5355999;23;20473;-92
2021/09/18 05:53:31;;;;;;;58.67;42.07;;;14.50;99.90;;;;;;5604526;23;20480;-90
2021/09/18 06:01:23;;;;;;;54.37;40.10;;;14.50;99.90;;;;;;5310965;23;20479;-94
2021/09/18 06:04:13;;;;;;;54.30;37.90;;;14.80;99.90;;;;;;5162703;23;20581;-92
2021/09/18 06:06:40;;;;;;;61.20;42.13;;;14.90;99.90;;;;;;5144846;23;20500;-91
2021/09/18 06:09:47;;;;;;;57.70;39.60;;;14.40;99.90;;;;;;4999090;28;20521;-94
2021/09/18 06:12:16;;;;;;;52.23;41.57;;;14.90;99.90;;;;;;4999886;28;20429;-92
2021/09/18 06:14:42;;;;;;;56.30;41.80;;;15.00;99.90;;;;;;4975463;28;20496;-91
2021/09/18 06:17:12;;;;;;;65.10;39.47;;;14.90;99.90;;;;;;4994721;28;20465;-91
2021/09/18 06:19:44;;;;;;;51.03;37.87;;;14.90;99.90;;;;;;4978647;28;20205;-91
2021/09/18 06:22:13;;;;;;;44.50;37.30;;;15.00;99.90;;;;;;4996483;28;20565;-92
2021/09/18 06:24:51;;;;;;;53.20;34.80;;;15.40;99.90;;;;;;4994321;28;20440;-93
2021/09/18 06:27:18;;;;;;;51.30;37.30;;;16.70;99.90;;;;;;4994988;28;20428;-92
2021/09/18 06:29:50;;;;;;;48.23;39.20;;;15.50;99.90;;;;;;4978642;28;20437;-91
2021/09/18 06:32:18;;;;;;;49.00;38.13;;;15.80;99.90;;;;;;4964132;28;20409;-91
2021/09/18 06:35:02;;;;;;;47.80;37.90;;;16.10;99.90;;;;;;4997969;28;20425;-93
2021/09/18 06:40:41;;;;;;;46.90;35.00;;;16.20;99.90;;;;;;5030405;28;20486;-93
2021/09/18 06:43:06;;;;;;;40.67;33.10;;;16.40;99.90;;;;;;5003963;28;20450;-92
2021/09/18 06:45:32;;;;;;;37.00;33.03;;;16.20;99.70;;;;;;5019369;28;20420;-94
2021/09/18 06:48:00;;;;;;;35.03;31.30;;;17.00;99.30;;;;;;5020901;28;20210;-92
2021/09/18 06:53:04;;;;;;;38.13;32.03;;;17.60;96.10;;;;;;5130874;22;20502;-94
2021/09/18 06:55:41;;;;;;;37.07;32.80;;;17.80;95.60;;;;;;4998919;28;20492;-92
2021/09/18 06:58:07;;;;;;;36.70;33.00;;;18.50;93.30;;;;;;4999098;28;20428;-92
2021/09/18 07:00:33;;;;;;;35.83;32.40;;;20.30;94.50;;;;;;5122043;23;20540;-91
2021/09/18 07:03:01;;;;;;;35.80;32.00;;;20.80;94.20;;;;;;5112222;23;20233;-93
2021/09/18 07:05:36;;;;;;;34.73;30.60;;;19.60;91.20;;;;;;5323334;23;20471;-92
2021/09/18 07:08:11;;;;;;;33.73;30.43;;;19.40;90.20;;;;;;5096552;23;20490;-94
2021/09/18 07:10:36;;;;;;;37.53;33.83;;;18.80;90.70;;;;;;5328951;23;20543;-93
2021/09/18 07:13:05;;;;;;;37.27;33.57;;;18.30;90.30;;;;;;4996513;28;20417;-91
2021/09/18 07:15:31;;;;;;;34.17;30.93;;;19.80;90.80;;;;;;4977259;28;20185;-88
2021/09/18 07:18:03;;;;;;;34.67;31.33;;;20.00;89.90;;;;;;4978779;28;20428;-93
2021/09/18 07:20:34;;;;;;;33.93;30.40;;;21.40;89.60;;;;;;4997121;28;20712;-92
2021/09/18 07:23:12;;;;;;;35.37;31.97;;;20.50;84.00;;;;;;4986951;28;20441;-93
2021/09/18 07:25:42;;;;;;;35.67;32.37;;;19.30;83.00;;;;;;5010957;28;20443;-93
2021/09/18 07:28:19;;;;;;;33.97;30.53;;;20.30;83.30;;;;;;4998985;28;20408;-91
2021/09/18 07:30:47;;;;;;;36.27;32.60;;;21.60;84.70;;;;;;5012257;28;20424;-92
2021/09/18 07:33:15;;;;;;;33.97;30.70;;;21.40;86.10;;;;;;4649058;28;9999812;-93
2021/09/18 07:35:57;;;;;;;34.80;31.23;;;21.90;76.80;;;;;;4977439;28;20182;-91
2021/09/18 07:38:27;;;;;;;33.60;30.07;;;;;;;;;;4995155;28;20426;-92
2021/09/18 07:41:02;;;;;;;33.30;30.23;;;;;;;;;;4977588;28;20468;-94
2021/09/18 07:43:29;;;;;;;32.27;29.37;;;;;;;;;;4988801;28;20429;-90
2021/09/18 07:45:55;;;;;;;34.57;31.37;;;;;;;;;;4976239;28;20414;-91
2021/09/18 07:48:30;;;;;;;35.10;31.67;;;;;;;;;;4979781;28;20532;-93
2021/09/18 07:51:00;;;;;;;33.97;30.47;;;;;;;;;;4979443;28;20428;-90
2021/09/18 07:53:46;;;;;;;35.37;31.87;;;;;;;;;;4996584;28;20413;-89
2021/09/18 07:56:13;;;;;;;36.87;33.37;;;;;;;;;;4977008;28;20417;-92
2021/09/18 07:58:39;;;;;;;36.23;33.13;;;;;;;;;;4993374;28;20428;-92
2021/09/18 08:01:46;;;;;;;35.67;32.43;;;;;;;;;;4995722;28;20504;-92
2021/09/18 08:06:53;;;;;;;38.40;34.97;;;;;;;;;;5193947;23;20443;-93
2021/09/18 08:09:19;;;;;;;41.83;38.10;;;;;;;;;;4997278;28;20432;-92
2021/09/18 08:11:50;;;;;;;40.73;37.00;;;;;;;;;;5024702;23;20503;-93
2021/09/18 08:14:20;;;;;;;44.20;39.97;;;;;;;;;;4996876;28;20437;-93
2021/09/18 08:16:49;;;;;;;45.50;41.30;;;;;;;;;;5013965;28;20524;-92
2021/09/18 08:19:17;;;;;;;44.27;40.20;;;;;;;;;;4996784;28;20417;-92
2021/09/18 08:21:49;;;;;;;44.73;40.80;;;;;;;;;;4993724;28;20467;-93
2021/09/18 08:24:17;;;;;;;45.30;41.10;;;;;;;;;;5005421;28;20431;-90
2021/09/18 08:26:43;;;;;;;41.80;38.13;;;;;;;;;;4991561;28;20488;-92
2021/09/18 08:29:09;;;;;;;44.17;40.27;;;;;;;;;;4991753;28;20405;-93
2021/09/18 08:31:38;;;;;;;41.93;38.23;;;;;;;;;;4991978;28;20409;-94
2021/09/18 08:34:26;;;;;;;45.73;41.33;;;;;;;;;;5011187;28;20471;-93
2021/09/18 08:37:12;;;;;;;44.20;39.90;;;;;;;;;;5011180;28;20416;-90
2021/09/18 08:39:39;;;;;;;44.43;40.70;;;;;;;;;;4996841;28;20412;-90
2021/09/18 08:42:05;;;;;;;46.33;42.13;;;;;;;;;;5011886;28;20464;-92
2021/09/18 08:44:33;;;;;;;48.97;44.60;;;;;;;;;;4998462;28;20451;-91
2021/09/18 08:52:15;;;;;;;46.90;43.00;;;;;;;;;;5280430;22;21419;-89
2021/09/18 08:54:47;;;;;;;48.30;43.73;;;;;;;;;;5364370;23;20901;-90
2021/09/18 08:57:13;;;;;;;49.27;44.57;;;;;;;;;;4994055;28;20448;-92
2021/09/18 08:59:41;;;;;;;48.70;44.27;;;;;;;;;;4990300;28;20420;-91
2021/09/18 09:02:11;;;;;;;43.40;39.43;;;;;;;;;;4980305;28;20464;-90
2021/09/18 09:04:44;;;;;;;43.77;39.90;;;;;;;;;;5013782;28;20579;-91
2021/09/18 09:07:20;;;;;;;43.93;39.97;;;;;;;;;;5004075;28;21365;-91
2021/09/18 09:10:02;;;;;;;38.30;34.80;;;;;;;;;;4991449;28;20491;-93
2021/09/18 09:12:31;;;;;;;33.27;30.37;;;;;;;;;;5129972;23;20483;-92
2021/09/18 09:14:59;;;;;;;38.60;35.40;;;;;;;;;;5007009;28;20436;-92
2021/09/18 09:17:54;;;;;;;42.13;38.43;;;;;;;;;;5007149;28;20408;-95
2021/09/18 09:20:24;;;;;;;43.00;39.20;;;;;;;;;;5010108;28;20896;-93
2021/09/18 09:22:50;;;;;;;42.03;38.33;;;;;;;;;;5009343;28;20440;-94
2021/09/18 09:25:25;;;;;;;43.43;39.53;;;;;;;;;;5065184;23;20511;-94
2021/09/18 09:27:51;;;;;;;46.07;41.87;;;;;;;;;;4987325;28;20499;-90
2021/09/18 09:30:34;;;;;;;44.00;39.87;;;;;;;;;;5002291;28;20515;-90
2021/09/18 09:33:12;;;;;;;40.60;36.97;;;;;;;;;;4983347;28;20420;-91
2021/09/18 09:35:39;;;;;;;37.90;34.53;;;;;;;;;;4986723;28;20424;-90
2021/09/18 09:38:06;;;;;;;40.40;36.93;;;;;;;;;;4986203;28;20451;-93
2021/09/18 09:40:40;;;;;;;37.73;34.10;;;;;;;;;;4984887;28;20400;-89
2021/09/18 09:43:07;;;;;;;39.20;35.20;;;;;;;;;;4983540;28;20413;-91
2021/09/18 09:45:33;;;;;;;35.90;32.70;;;;;;;;;;4980620;28;20471;-88
2021/09/18 09:48:07;;;;;;;33.00;30.10;;;;;;;;;;4999718;28;20932;-91
2021/09/18 09:50:36;;;;;;;38.13;34.30;;;;;;;;;;4984703;28;20437;-92
2021/09/18 09:53:03;;;;;;;35.93;32.77;;;;;;;;;;4981982;28;20456;-92
2021/09/18 09:55:34;;;;;;;35.83;32.33;;;;;;;;;;4965611;28;20766;-92
2021/09/18 09:58:09;;;;;;;33.10;30.13;;;;;;;;;;4983516;28;20425;-85
2021/09/18 10:00:40;;;;;;;34.97;31.90;;;;;;;;;;5004580;28;20471;-91
2021/09/18 10:03:06;;;;;;;27.10;25.00;;;;;;;;;;4980470;28;20436;-89
2021/09/18 10:05:32;;;;;;;49.83;43.90;;;;;;;;;;4979804;28;20459;-91
2021/09/18 10:08:01;;;;;;;40.80;36.70;;;;;;;;;;4983851;28;20451;-91
2021/09/18 10:10:28;;;;;;;39.90;36.03;;;;;;;;;;4984490;28;20974;-90
2021/09/18 10:12:56;;;;;;;23.40;21.60;;;;;;;;;;5003140;28;20412;-91
2021/09/18 10:15:24;;;;;;;30.53;27.93;;;;;;;;;;4999765;28;20412;-87
2021/09/18 10:17:50;;;;;;;20.87;19.17;;;;;;;;;;5004119;28;20459;-92
2021/09/18 10:25:38;;;;;;;22.93;21.03;;;;;;;;;;5005257;28;20461;-91
2021/09/18 10:28:12;;;;;;;26.13;24.07;;;;;;;;;;4987064;28;20471;-93
2021/09/18 10:30:55;;;;;;;27.70;25.30;;;;;;;;;;5008286;28;20412;-93
2021/09/18 10:33:45;;;;;;;23.33;21.63;;;;;;;;;;5001612;28;20408;-92
2021/09/18 10:36:30;;;;;;;25.37;23.40;;;;;;;;;;4981353;28;20484;-89
2021/09/18 10:39:13;;;;;;;25.33;23.40;;;;;;;;;;5005846;28;20486;-90
2021/09/18 10:41:44;;;;;;;26.40;24.30;;;;;;;;;;4985956;28;20523;-89
2021/09/18 10:44:11;;;;;;;30.90;28.30;;;28.30;42.20;;;;;;5003445;28;20473;-89
2021/09/18 10:46:47;;;;;;;32.17;29.53;;;27.50;44.30;;;;;;5002832;28;20475;-87
2021/09/18 10:49:36;;;;;;;28.47;26.30;;;27.20;45.70;;;;;;5003885;28;20440;-87
2021/09/18 10:52:22;;;;;;;38.13;34.80;;;27.20;46.50;;;;;;4988744;28;20413;-92
2021/09/18 10:55:17;;;;;;;38.60;35.10;;;26.40;47.70;;;;;;4989491;28;20424;-92
2021/09/18 10:57:48;;;;;;;39.60;35.90;;;26.40;48.20;;;;;;4990522;28;20906;-90
2021/09/18 11:00:32;;;;;;;36.93;33.53;;;26.20;48.90;;;;;;5007549;28;20760;-91
2021/09/18 11:03:00;;;;;;;40.57;36.70;;;25.80;49.20;;;;;;5006801;28;20439;-90
2021/09/18 11:05:27;;;;;;;36.10;32.60;;;25.60;50.00;;;;;;4987893;28;20416;-88
2021/09/18 11:07:53;;;;;;;33.30;29.17;;;25.70;50.40;;;;;;4986414;28;20450;-94
2021/09/18 11:10:22;;;;;;;30.27;27.20;;;25.40;49.90;;;;;;5006307;28;20480;-90
2021/09/18 11:13:09;;;;;;;27.27;24.77;;;25.30;50.70;;;;;;4987608;28;20238;-92
2021/09/18 11:15:39;;;;;;;30.07;27.13;;;25.20;49.00;;;;;;5005542;28;20417;-90
2021/09/18 11:18:14;;;;;;;23.27;21.27;;;25.80;50.10;;;;;;5006100;28;20425;-91
2021/09/18 11:20:40;;;;;;;21.43;19.73;;;24.80;48.50;;;;;;4714202;23;10001768;-89
2021/09/18 11:23:06;;;;;;;26.20;23.73;;;26.40;47.20;;;;;;4993094;28;20170;-91
2021/09/18 11:25:33;;;;;;;25.77;23.27;;;27.10;47.10;;;;;;4989135;28;20984;-89
2021/09/18 11:28:05;;;;;;;23.60;21.80;;;29.00;47.10;;;;;;4981339;28;20489;-90
2021/09/18 11:30:47;;;;;;;22.37;20.37;;;;;;;;;;4968076;28;20410;-91
2021/09/18 11:33:16;;;;;;;23.83;21.80;;;;;;;;;;4965318;28;20501;-91
2021/09/18 11:35:50;;;;;;;25.97;23.90;;;;;;;;;;4965022;28;20429;-92
2021/09/18 11:38:25;;;;;;;34.23;31.13;;;;;;;;;;4966358;28;20418;-92
2021/09/18 11:40:51;;;;;;;28.90;26.20;;;;;;;;;;4972094;28;20457;-92
2021/09/18 11:43:37;;;;;;;27.03;24.73;;;;;;;;;;4967066;28;20458;-94
2021/09/18 11:46:23;;;;;;;25.27;23.23;;;;;;;;;;4969147;28;20421;-87
2021/09/18 11:49:06;;;;;;;26.63;24.17;;;;;;;;;;4965896;28;20429;-91
2021/09/18 11:51:32;;;;;;;25.90;23.07;;;;;;;;;;4969226;28;20473;-89
2021/09/18 11:54:05;;;;;;;19.50;18.00;;;;;;;;;;4967722;28;20440;-92
2021/09/18 11:56:37;;;;;;;21.07;19.47;;;;;;;;;;4965920;28;20436;-93
2021/09/18 11:59:10;;;;;;;27.23;24.93;;;;;;;;;;4967516;28;20861;-88
2021/09/18 12:01:39;;;;;;;23.97;22.10;;;;;;;;;;4980738;28;20634;-88
2021/09/18 12:04:05;;;;;;;26.30;24.27;;;;;;;;;;4968839;28;20402;-90
2021/09/18 12:06:31;;;;;;;26.13;24.03;;;;;;;;;;4964779;28;20506;-90
2021/09/18 12:08:58;;;;;;;26.17;24.07;;;;;;;;;;4967232;28;20425;-94
2021/09/18 12:11:28;;;;;;;26.50;24.17;;;30.20;40.70;;;;;;4967082;28;20430;-91
2021/09/18 12:13:57;;;;;;;24.83;22.63;;;29.50;42.70;;;;;;4966445;28;20418;-91
2021/09/18 12:16:24;;;;;;;24.73;22.57;;;29.20;43.30;;;;;;4967781;28;20786;-92
2021/09/18 12:19:01;;;;;;;24.07;22.07;;;28.90;43.00;;;;;;4967707;28;20419;-89
2021/09/18 12:21:30;;;;;;;24.73;22.70;;;28.50;43.40;;;;;;4968778;28;20504;-91
2021/09/18 12:24:17;;;;;;;23.23;21.27;;;28.50;43.20;;;;;;4988010;28;20416;-92
2021/09/18 12:26:47;;;;;;;24.40;22.40;;;29.10;43.60;;;;;;4971735;28;20429;-93
2021/09/18 12:29:16;;;;;;;25.97;23.87;;;29.70;43.20;;;;;;4969024;28;20422;-89
2021/09/18 12:31:44;;;;;;;22.87;20.97;;;29.10;41.70;;;;;;4967436;28;20838;-90
2021/09/18 12:34:34;;;;;;;23.83;21.73;;;30.20;42.00;;;;;;4968362;28;20446;-89
2021/09/18 12:37:07;;;;;;;22.20;20.27;;;30.80;40.90;;;;;;4977758;28;20440;-90
2021/09/18 12:39:34;;;;;;;20.57;18.97;;;30.10;41.60;;;;;;4987825;28;20420;-94
2021/09/18 12:42:04;;;;;;;19.93;18.10;;;30.20;40.60;;;;;;5014002;28;20463;-90
2021/09/18 12:44:46;;;;;;;18.60;17.10;;;31.40;39.80;;;;;;4992070;28;20425;-89
2021/09/18 12:47:29;;;;;;;19.70;18.10;;;31.50;39.80;;;;;;4988740;28;20420;-91
2021/09/18 12:50:12;;;;;;;18.37;17.07;;;30.80;39.70;;;;;;5003003;28;20943;-95
2021/09/18 12:52:40;;;;;;;19.33;17.93;;;;;;;;;;5006811;28;20417;-90
2021/09/18 12:55:06;;;;;;;18.47;17.20;;;;;;;;;;4988595;28;20426;-88
2021/09/18 12:57:33;;;;;;;20.97;19.30;;;;;;;;;;4987641;28;20488;-87
2021/09/18 13:00:08;;;;;;;16.83;15.53;;;;;;;;;;4986594;28;20463;-94
2021/09/18 13:02:36;;;;;;;19.93;18.23;;;;;;;;;;4988067;28;20527;-90
2021/09/18 13:05:05;;;;;;;18.37;17.03;;;;;;;;;;4987398;28;20477;-92
2021/09/18 13:07:31;;;;;;;20.83;19.10;;;31.10;38.00;;;;;;4983102;28;20433;-91
2021/09/18 13:10:12;;;;;;;;;;;;;;;;;;;;;
2021/09/18 13:12:43;;;;;;;19.23;17.80;;;29.50;40.00;;;;;;5008994;28;20455;-87
2021/09/18 13:15:22;;;;;;;19.67;18.37;;;28.50;40.30;;;;;;4992424;28;20497;-92
2021/09/18 13:17:57;;;;;;;19.63;18.10;;;30.50;41.70;;;;;;4989640;28;20887;-92
2021/09/18 13:20:28;;;;;;;20.40;18.90;;;29.90;41.50;;;;;;5005741;28;20484;-90
2021/09/18 13:23:00;;;;;;;27.40;25.40;;;30.80;40.50;;;;;;5006982;28;20411;-94
2021/09/18 13:25:27;;;;;;;23.67;21.80;;;31.40;41.10;;;;;;5004773;28;20437;-92
2021/09/18 13:28:08;;;;;;;29.97;27.57;;;32.10;40.00;;;;;;5009274;28;20419;-91
2021/09/18 13:30:35;;;;;;;31.67;29.33;;;31.40;39.60;;;;;;4990503;28;20405;-88
2021/09/18 13:33:08;;;;;;;27.77;25.60;;;30.70;39.90;;;;;;4983864;28;20432;-93
2021/09/18 13:35:37;;;;;;;30.10;27.63;;;30.00;41.20;;;;;;4986550;28;20408;-93
2021/09/18 13:38:04;;;;;;;30.17;27.90;;;28.50;42.20;;;;;;5005019;28;20404;-93
2021/09/18 13:40:29;;;;;;;27.83;25.73;;;27.70;45.20;;;;;;5004015;28;20493;-95
2021/09/18 13:42:58;;;;;;;28.90;26.70;;;26.70;44.80;;;;;;4995248;28;20447;-92
2021/09/18 13:45:31;;;;;;;25.90;23.90;;;26.40;46.20;;;;;;5006400;28;20168;-92
2021/09/18 13:47:57;;;;;;;27.13;24.73;;;27.60;43.80;;;;;;5004384;28;20489;-93
2021/09/18 13:50:23;;;;;;;28.73;26.37;;;27.70;44.40;;;;;;5003148;28;20439;-93
2021/09/18 13:52:52;;;;;;;24.30;22.40;;;28.40;43.60;;;;;;5007995;28;20179;-94
2021/09/18 13:55:18;;;;;;;25.30;23.27;;;28.90;42.70;;;;;;5009457;28;20462;-95
2021/09/18 13:57:44;;;;;;;23.20;21.30;;;28.40;42.20;;;;;;5010161;28;20423;-94
2021/09/18 14:00:13;;;;;;;22.03;20.43;;;29.30;42.20;;;;;;5010501;28;20207;-94
2021/09/18 14:02:39;;;;;;;23.77;21.93;;;29.20;42.00;;;;;;5005849;28;20630;-94
2021/09/18 14:05:06;;;;;;;33.87;30.80;;;29.90;42.20;;;;;;5006296;28;20450;-92
2021/09/18 14:07:31;;;;;;;22.80;21.10;;;29.70;41.30;;;;;;5007452;28;20238;-94
2021/09/18 14:09:57;;;;;;;25.33;23.20;;;29.10;41.50;;;;;;5007364;28;20450;-94
2021/09/18 14:12:23;;;;;;;22.43;20.53;;;29.10;41.90;;;;;;5023018;28;20179;-93
2021/09/18 14:14:48;;;;;;;20.50;19.10;;;29.30;42.30;;;;;;5006889;28;20239;-93
2021/09/18 14:17:24;;;;;;;23.00;21.40;;;27.90;43.00;;;;;;5006235;28;20272;-94
2021/09/18 14:19:50;;;;;;;21.20;19.70;;;28.50;43.60;;;;;;5004667;28;20219;-95
2021/09/18 14:23:01;;;;;;;23.33;21.63;;;28.40;44.30;;;;;;5010213;28;20559;-95
2021/09/18 14:25:29;;;;;;;19.80;18.43;;;27.50;43.30;;;;;;5008194;28;20180;-92
2021/09/18 14:27:55;;;;;;;18.67;17.27;;;27.90;43.60;;;;;;5013476;28;20505;-93
2021/09/18 14:30:25;;;;;;;18.67;17.47;;;28.10;43.00;;;;;;5000445;28;20418;-93
2021/09/18 14:33:01;;;;;;;16.27;15.17;;;28.40;42.40;;;;;;5033333;28;20408;-94
2021/09/18 14:35:34;;;;;;;18.20;16.83;;;28.40;42.30;;;;;;5031017;28;20475;-91
2021/09/18 14:38:18;;;;;;;30.83;28.63;;;27.80;42.50;;;;;;4999036;28;20419;-94
2021/09/18 14:40:49;;;;;;;17.43;16.33;;;27.80;42.90;;;;;;5017643;28;20717;-94
2021/09/18 14:43:16;;;;;;;17.07;15.97;;;27.60;42.60;;;;;;5037076;28;20427;-94
2021/09/18 14:45:42;;;;;;;16.63;15.43;;;28.60;43.50;;;;;;5020500;28;20442;-93
2021/09/18 14:50:56;;;;;;;16.70;15.70;;;27.20;42.80;;;;;;4994287;28;20469;-94
2021/09/18 14:53:22;;;;;;;17.70;16.33;;;26.50;43.30;;;;;;4974943;28;20621;-93
2021/09/18 14:55:51;;;;;;;18.23;17.03;;;26.20;44.40;;;;;;4975097;28;20426;-95
2021/09/18 14:58:16;;;;;;;16.90;15.60;;;26.00;45.60;;;;;;4973335;28;20470;-93
2021/09/18 15:00:42;;;;;;;16.13;14.93;;;25.90;45.30;;;;;;4978529;28;20429;-92
2021/09/18 15:03:11;;;;;;;16.07;14.87;;;26.20;46.70;;;;;;4991181;28;20182;-92
2021/09/18 15:05:46;;;;;;;15.10;14.10;;;25.50;46.10;;;;;;4972224;28;20586;-92
2021/09/18 15:08:23;;;;;;;14.50;13.67;;;26.50;46.80;;;;;;4972682;28;20424;-93
2021/09/18 15:10:49;;;;;;;22.53;20.20;;;25.20;46.00;;;;;;4969370;28;20417;-92
2021/09/18 15:13:25;;;;;;;;;;;;;;;;;;;;;
2021/09/18 15:15:56;;;;;;;16.00;14.90;;;25.00;47.70;;;;;;4984549;28;20317;-90
2021/09/18 15:18:30;;;;;;;16.90;15.70;;;24.80;47.60;;;;;;4974453;28;20429;-94
2021/09/18 15:20:56;;;;;;;15.30;14.30;;;25.00;48.80;;;;;;4976576;28;20454;-91
2021/09/18 15:23:34;;;;;;;15.10;14.17;;;24.50;47.90;;;;;;4962427;28;20522;-93
2021/09/18 15:26:11;;;;;;;13.97;12.90;;;24.50;47.40;;;;;;4978776;28;20421;-93
2021/09/18 15:28:37;;;;;;;12.73;11.90;;;24.40;47.50;;;;;;4995730;28;20484;-93
2021/09/18 15:31:22;;;;;;;15.57;14.57;;;24.20;49.60;;;;;;4973390;28;20429;-90
2021/09/18 15:33:53;;;;;;;15.10;14.00;;;24.00;47.70;;;;;;4972376;28;20185;-91
2021/09/18 15:36:25;;;;;;;15.97;14.80;;;23.90;48.50;;;;;;4986587;28;20409;-93
2021/09/18 15:38:56;;;;;;;15.90;14.87;;;24.00;48.00;;;;;;4972620;28;20464;-94
2021/09/18 15:41:23;;;;;;;14.50;13.60;;;23.90;48.80;;;;;;4974881;28;20453;-93
2021/09/18 15:44:00;;;;;;;15.60;14.50;;;26.20;50.90;;;;;;4956276;28;20485;-93
2021/09/18 15:46:29;;;;;;;16.90;15.60;;;23.90;49.00;;;;;;4972841;28;20509;-94
2021/09/18 15:48:55;;;;;;;16.57;15.37;;;23.60;48.70;;;;;;4973511;28;20458;-90
2021/09/18 15:51:23;;;;;;;15.47;14.37;;;23.40;50.60;;;;;;4990467;28;20432;-94
2021/09/18 15:53:52;;;;;;;15.77;14.77;;;24.90;51.70;;;;;;4973028;28;20489;-94
2021/09/18 15:56:20;;;;;;;13.27;12.47;;;23.10;51.90;;;;;;4989979;28;20409;-95
2021/09/18 15:58:57;;;;;;;14.17;13.17;;;23.80;52.40;;;;;;4973922;28;20441;-93
2021/09/18 16:01:44;;;;;;;14.40;13.30;;;23.10;50.40;;;;;;4959502;28;20449;-92
2021/09/18 16:04:30;;;;;;;13.00;12.10;;;25.00;53.40;;;;;;4991393;28;20413;-92
2021/09/18 16:06:59;;;;;;;15.03;13.93;;;23.00;52.20;;;;;;4942648;28;20436;-91
2021/09/18 16:09:50;;;;;;;11.80;11.10;;;25.10;55.00;;;;;;4975847;28;20433;-93
2021/09/18 16:12:18;;;;;;;13.70;12.80;;;23.00;52.10;;;;;;4992732;28;20406;-93
2021/09/18 16:14:49;;;;;;;12.00;11.07;;;23.40;53.10;;;;;;4961930;28;20421;-92
2021/09/18 16:17:18;;;;;;;11.63;10.93;;;24.20;53.40;;;;;;4979025;28;20429;-91
2021/09/18 16:20:06;;;;;;;12.97;11.97;;;24.00;53.80;;;;;;4991364;28;20410;-95
2021/09/18 16:22:35;;;;;;;11.43;10.83;;;22.90;52.80;;;;;;4976516;28;20476;-93
2021/09/18 16:25:01;;;;;;;12.87;11.57;;;23.20;51.10;;;;;;4972646;28;20421;-91
2021/09/18 16:27:37;;;;;;;12.27;11.47;;;21.90;52.90;;;;;;4990840;28;20409;-94
2021/09/18 16:30:27;;;;;;;10.93;10.23;;;22.40;52.00;;;;;;4973469;28;20430;-94
2021/09/18 16:32:58;;;;;;;9.87;9.27;;;22.80;51.00;;;;;;4993728;28;20456;-94
2021/09/18 16:35:23;;;;;;;9.87;9.27;;;23.00;52.00;;;;;;4975330;28;20417;-94
2021/09/18 16:37:53;;;;;;;10.17;9.57;;;23.00;53.50;;;;;;4975217;28;20457;-94
2021/09/18 16:40:21;;;;;;;10.13;9.30;;;22.30;51.90;;;;;;4976495;28;20174;-94
2021/09/18 16:42:50;;;;;;;11.03;10.33;;;22.20;50.90;;;;;;4989412;28;20469;-91
2021/09/18 16:45:25;;;;;;;12.73;11.83;;;22.30;51.30;;;;;;4959688;28;20410;-92
2021/09/18 16:47:52;;;;;;;10.70;9.90;;;23.80;53.90;;;;;;4973691;28;20429;-92
2021/09/18 16:50:23;;;;;;;13.33;11.33;;;21.00;51.80;;;;;;4972203;28;20469;-92
2021/09/18 16:52:54;;;;;;;11.83;11.07;;;22.90;52.10;;;;;;4972947;28;20421;-91
2021/09/18 16:55:44;;;;;;;11.90;11.00;;;21.00;50.70;;;;;;4972668;28;20800;-92
2021/09/18 16:58:19;;;;;;;11.50;10.70;;;25.30;55.30;;;;;;4958972;28;20441;-91
2021/09/18 17:00:59;;;;;;;10.87;10.17;;;22.40;52.10;;;;;;4991215;28;20413;-91
2021/09/18 17:03:36;;;;;;;10.83;10.23;;;20.90;52.60;;;;;;4977496;28;20422;-89
2021/09/18 17:06:11;;;;;;;11.27;10.27;;;21.50;52.90;;;;;;4991937;28;20389;-93
2021/09/18 17:08:39;;;;;;;13.50;12.40;;;21.40;52.90;;;;;;4957846;28;20433;-93
2021/09/18 17:11:06;;;;;;;12.13;11.23;;;21.50;53.20;;;;;;4969105;28;20477;-92
2021/09/18 17:13:56;;;;;;;12.63;11.60;;;22.50;54.30;;;;;;4971301;28;20413;-92
2021/09/18 17:16:51;;;;;;;9.97;9.37;;;21.50;52.80;;;;;;4989741;28;20551;-92
2021/09/18 17:19:17;;;;;;;9.90;9.20;;;21.70;53.20;;;;;;4992239;28;20417;-92
2021/09/18 17:21:55;;;;;;;9.30;8.83;;;23.00;56.70;;;;;;4969726;28;20481;-92
2021/09/18 17:24:26;;;;;;;8.60;8.00;;;20.90;54.50;;;;;;4975778;28;20417;-92
2021/09/18 17:27:13;;;;;;;8.40;7.60;;;21.90;55.20;;;;;;4978505;28;20497;-90
2021/09/18 17:29:56;;;;;;;9.90;8.60;;;21.10;54.90;;;;;;4969471;28;20459;-92
2021/09/18 17:32:33;;;;;;;8.80;8.10;;;20.60;54.20;;;;;;4996288;28;20473;-90
2021/09/18 17:35:01;;;;;;;9.73;8.73;;;20.50;55.40;;;;;;4981327;28;20528;-90
2021/09/18 17:40:06;;;;;;;14.10;12.77;;;20.30;55.10;;;;;;5226553;23;20471;-92
2021/09/18 18:00:46;;;;;;;7.47;6.80;;;19.70;57.30;;;;;;4372232;22;20501;-93
2021/09/18 18:03:15;;;;;;;5.80;5.50;;;20.50;57.60;;;;;;5019412;28;20435;-93
2021/09/18 18:06:09;;;;;;;6.97;6.43;;;19.70;61.90;;;;;;5037200;28;20399;-92
2021/09/18 18:08:39;;;;;;;7.10;6.60;;;19.70;58.20;;;;;;5018832;28;20478;-93
2021/09/18 18:11:08;;;;;;;6.23;5.93;;;19.70;58.90;;;;;;5022141;28;20404;-93
2021/09/18 18:14:27;;;;;;;5.00;4.80;;;19.20;57.80;;;;;;5037484;28;20426;-94
2021/09/18 18:17:58;;;;;;;6.00;5.70;;;19.80;58.30;;;;;;4932521;29;20456;-93
2021/09/18 18:25:35;;;;;;;6.77;6.27;;;19.00;59.20;;;;;;5320363;23;20484;-92
2021/09/18 18:31:47;;;;;;;;;;;;;;;;;;;;;
2021/09/18 18:37:54;;;;;;;12.10;6.13;;;19.10;60.50;;;;;;3844526;23;20872;-91
2021/09/18 18:40:35;;;;;;;7.30;6.80;;;17.70;61.50;;;;;;4974610;28;20498;-91
2021/09/18 18:43:21;;;;;;;7.17;6.50;;;19.60;60.80;;;;;;4977280;28;20521;-92
2021/09/18 18:46:00;;;;;;;6.10;5.80;;;19.60;67.00;;;;;;4978474;28;20427;-92
2021/09/18 18:49:05;;;;;;;7.67;5.73;;;19.30;63.00;;;;;;4961039;28;20422;-91
2021/09/18 18:51:39;;;;;;;9.73;7.47;;;20.30;62.60;;;;;;4977389;28;20431;-92
2021/09/18 18:54:06;;;;;;;7.83;7.10;;;17.10;60.70;;;;;;4956780;29;20410;-93
2021/09/18 18:57:03;;;;;;;14.50;10.20;;;18.70;64.40;;;;;;4976101;28;20441;-92
2021/09/18 18:59:29;;;;;;;6.93;6.53;;;17.80;60.60;;;;;;4955323;29;20530;-96
2021/09/18 19:01:55;;;;;;;5.93;5.50;;;16.90;68.10;;;;;;4958412;29;20485;-88
2021/09/18 19:04:21;;;;;;;11.63;7.70;;;18.20;68.70;;;;;;4971854;28;20441;-95
2021/09/18 19:06:57;;;;;;;;;;;;;;;;;;;;;
2021/09/18 19:09:26;;;;;;;10.10;5.90;;;18.40;68.40;;;;;;4964362;28;20595;-94
2021/09/18 19:12:05;;;;;;;;;;;;;;;;;;;;;
2021/09/18 19:14:44;;;;;;;5.90;5.37;;;20.00;67.50;;;;;;4971770;29;20430;-92
2021/09/18 19:17:14;;;;;;;5.40;4.97;;;18.70;64.40;;;;;;4957874;29;20426;-92
2021/09/18 19:19:54;;;;;;;;;;;;;;;;;;;;;
2021/09/18 19:22:23;;;;;;;7.27;6.70;;;16.60;62.50;;;;;;4985380;28;20537;-93
2021/09/18 19:24:51;;;;;;;6.97;6.67;;;19.40;69.50;;;;;;4950901;29;20433;-93
2021/09/18 19:27:22;;;;;;;6.60;6.30;;;18.30;68.20;;;;;;4950426;29;20513;-93
2021/09/18 19:29:54;;;;;;;5.77;5.53;;;17.90;68.70;;;;;;4983857;28;20431;-92
2021/09/18 19:32:20;;;;;;;5.63;5.33;;;18.00;68.20;;;;;;4993772;28;20435;-92
2021/09/18 19:34:49;;;;;;;6.70;6.33;;;19.20;72.80;;;;;;4995212;28;20424;-93
2021/09/18 19:37:15;;;;;;;5.90;5.47;;;20.00;72.70;;;;;;4996369;28;20412;-91
2021/09/18 19:39:51;;;;;;;5.90;5.67;;;19.60;74.80;;;;;;4993672;28;20481;-92
2021/09/18 19:42:28;;;;;;;6.83;6.50;;;19.70;78.00;;;;;;4994468;28;20472;-93
2021/09/18 19:45:06;;;;;;;9.23;6.00;;;17.60;70.00;;;;;;4995608;28;20397;-93
2021/09/18 19:47:43;;;;;;;7.30;6.87;;;17.60;70.80;;;;;;4994528;28;20445;-93
2021/09/18 19:50:12;;;;;;;5.77;5.47;;;17.40;72.50;;;;;;4989149;28;20484;-93
2021/09/18 19:53:42;;;;;;;;;;;;;;;;;;;;;
2021/09/18 19:56:19;;;;;;;7.10;6.47;;;17.90;72.30;;;;;;4994956;28;20420;-92
2021/09/18 19:59:02;;;;;;;7.10;6.70;;;17.80;75.60;;;;;;4991136;28;20413;-93
2021/09/18 20:01:35;;;;;;;5.80;5.50;;;17.20;76.40;;;;;;5010819;28;20545;-92
2021/09/18 20:04:00;;;;;;;6.40;5.53;;;18.50;77.50;;;;;;4978593;28;20536;-94
2021/09/18 20:06:44;;;;;;;5.13;4.97;;;17.20;78.60;;;;;;4995195;28;20441;-91
2021/09/18 20:09:28;;;;;;;6.40;5.90;;;17.50;76.20;;;;;;4982606;28;20413;-91